createdAt,value
2022-09-27T00:02:09.477Z,11.93
2022-09-27T00:07:41.009Z,11.92
2022-09-27T00:13:12.729Z,11.91
2022-09-27T00:18:44.385Z,11.82
2022-09-27T00:24:16.229Z,11.73
2022-09-27T00:29:52.353Z,11.83
2022-09-27T00:35:24.042Z,11.71
2022-09-27T00:40:55.824Z,11.83
2022-09-27T00:46:27.613Z,11.72
2022-09-27T00:51:59.205Z,11.72
2022-09-27T00:57:30.981Z,11.71
2022-09-27T01:03:02.821Z,11.85
2022-09-27T01:08:34.876Z,11.68
2022-09-27T01:14:06.131Z,11.72
2022-09-27T01:19:37.865Z,11.78
2022-09-27T01:25:09.616Z,11.85
2022-09-27T01:30:47.898Z,11.81
2022-09-27T01:36:19.432Z,11.78
2022-09-27T01:41:51.125Z,11.91
2022-09-27T01:47:22.838Z,12.14
2022-09-27T01:52:54.581Z,11.94
2022-09-27T01:58:26.434Z,11.9
2022-09-27T02:03:58.024Z,11.92
2022-09-27T02:09:29.735Z,12.03
2022-09-27T02:15:01.466Z,12.04
2022-09-27T02:20:33.182Z,11.86
2022-09-27T02:26:04.881Z,11.73
2022-09-27T02:31:40.998Z,11.62
2022-09-27T02:37:12.793Z,11.57
2022-09-27T02:42:44.507Z,11.02
2022-09-27T02:48:16.213Z,11.12
2022-09-27T02:53:48.005Z,11.39
2022-09-27T02:59:19.669Z,11.27
2022-09-27T03:04:51.386Z,11.08
2022-09-27T03:10:23.114Z,11.0
2022-09-27T03:15:57.074Z,10.86
2022-09-27T03:21:26.489Z,10.81
2022-09-27T03:26:58.238Z,10.9
2022-09-27T03:32:34.405Z,10.97
2022-09-27T03:38:06.070Z,10.87
2022-09-27T03:43:37.769Z,10.68
2022-09-27T03:49:09.552Z,10.84
2022-09-27T03:54:41.272Z,10.76
2022-09-27T04:00:12.980Z,10.8
2022-09-27T04:05:44.729Z,11.04
2022-09-27T04:11:16.465Z,11.02
2022-09-27T04:16:48.275Z,10.97
2022-09-27T04:22:19.865Z,10.87
2022-09-27T04:27:51.651Z,11.09
2022-09-27T04:33:27.755Z,10.91
2022-09-27T04:38:59.482Z,10.91
2022-09-27T04:44:32.914Z,10.86
2022-09-27T04:50:04.582Z,11.04
2022-09-27T04:55:36.370Z,10.84
2022-09-27T05:01:08.051Z,11.06
2022-09-27T05:06:39.868Z,10.8
2022-09-27T05:12:11.483Z,10.97
2022-09-27T05:17:43.202Z,11.04
2022-09-27T05:23:14.954Z,10.78
2022-09-27T05:28:46.735Z,10.84
2022-09-27T05:34:22.809Z,10.83
2022-09-27T05:39:54.526Z,10.84
2022-09-27T05:45:26.231Z,10.69
2022-09-27T05:50:58.003Z,10.62
2022-09-27T05:56:29.678Z,10.84
2022-09-27T06:02:01.497Z,10.6
2022-09-27T06:07:33.135Z,10.59
2022-09-27T06:13:04.850Z,10.72
2022-09-27T06:18:36.615Z,10.78
2022-09-27T06:24:08.418Z,10.56
2022-09-27T06:29:40.434Z,10.78
2022-09-27T06:35:18.189Z,10.73
2022-09-27T06:40:49.956Z,10.62
2022-09-27T06:46:21.662Z,10.53
2022-09-27T06:51:53.354Z,10.66
2022-09-27T06:57:25.147Z,10.44
2022-09-27T07:02:56.850Z,10.48
2022-09-27T07:08:28.623Z,10.21
2022-09-27T07:14:00.223Z,10.43
2022-09-27T07:19:32.037Z,10.37
2022-09-27T07:25:03.837Z,10.61
2022-09-27T07:30:35.487Z,10.51
2022-09-27T07:36:11.546Z,10.55
2022-09-27T07:41:43.278Z,10.55
2022-09-27T07:47:15.022Z,10.75
2022-09-27T07:52:46.711Z,10.93
2022-09-27T07:58:18.406Z,11.09
2022-09-27T08:03:50.225Z,11.52
2022-09-27T08:09:21.889Z,11.45
2022-09-27T08:14:53.767Z,11.27
2022-09-27T08:20:25.484Z,11.23
2022-09-27T08:25:57.122Z,11.25
2022-09-27T08:31:28.909Z,11.71
2022-09-27T08:37:04.851Z,12.0
2022-09-27T08:42:36.595Z,11.76
2022-09-27T08:48:08.505Z,11.52
2022-09-27T08:53:40.050Z,11.64
2022-09-27T08:59:11.995Z,11.53
2022-09-27T09:04:43.472Z,11.6
2022-09-27T09:10:15.185Z,11.77
2022-09-27T09:15:46.937Z,11.56
2022-09-27T09:21:18.693Z,11.46
2022-09-27T09:26:50.426Z,11.81
2022-09-27T09:32:22.139Z,12.14
2022-09-27T09:37:58.243Z,12.23
2022-09-27T09:43:30.035Z,12.4
2022-09-27T09:49:01.678Z,12.34
2022-09-27T09:54:33.394Z,12.12
2022-09-27T10:00:05.119Z,12.53
2022-09-27T10:05:36.964Z,12.87
2022-09-27T10:11:08.554Z,13.47
2022-09-27T10:16:40.289Z,13.38
2022-09-27T10:22:12.051Z,13.23
2022-09-27T10:27:43.784Z,13.21
2022-09-27T10:33:15.537Z,12.85
2022-09-27T10:38:51.605Z,12.78
2022-09-27T10:44:23.403Z,12.97
2022-09-27T10:49:55.059Z,13.05
2022-09-27T10:55:26.773Z,13.23
2022-09-27T11:00:58.577Z,13.16
2022-09-27T11:06:30.259Z,12.97
2022-09-27T11:12:01.993Z,12.79
2022-09-27T11:17:33.709Z,12.67
2022-09-27T11:23:05.435Z,12.91
2022-09-27T11:28:37.546Z,12.83
2022-09-27T11:34:09.302Z,13.05
2022-09-27T11:39:46.946Z,12.96
2022-09-27T11:45:34.599Z,12.51
2022-09-27T11:50:50.435Z,11.86
2022-09-27T11:56:22.134Z,10.75
2022-09-27T12:01:53.858Z,10.29
2022-09-27T12:07:25.635Z,10.46
2022-09-27T12:12:57.273Z,10.68
2022-09-27T12:18:29.041Z,10.74
2022-09-27T12:24:00.754Z,10.67
2022-09-27T12:29:32.441Z,10.59
2022-09-27T12:35:04.251Z,10.83
2022-09-27T12:40:40.313Z,10.56
2022-09-27T12:46:12.099Z,10.64
2022-09-27T12:51:43.769Z,10.61
2022-09-27T12:57:18.062Z,10.69
2022-09-27T13:03:04.248Z,11.3
2022-09-27T13:08:18.934Z,11.05
2022-09-27T13:13:50.621Z,11.0
2022-09-27T13:19:26.428Z,10.54
2022-09-27T13:24:54.090Z,10.47
2022-09-27T13:30:25.903Z,10.55
2022-09-27T13:35:57.564Z,10.82
2022-09-27T13:41:33.716Z,10.99
2022-09-27T13:47:05.465Z,11.04
2022-09-27T13:52:37.193Z,10.93
2022-09-27T13:58:08.992Z,10.81
2022-09-27T14:03:40.622Z,10.56
2022-09-27T14:09:12.611Z,10.59
2022-09-27T14:14:44.311Z,10.88
2022-09-27T14:20:15.867Z,10.95
2022-09-27T14:25:47.650Z,10.96
2022-09-27T14:31:19.490Z,11.18
2022-09-27T14:36:51.046Z,11.46
2022-09-27T14:42:29.213Z,11.42
2022-09-27T14:48:00.901Z,11.71
2022-09-27T14:53:32.622Z,11.75
2022-09-27T14:59:04.489Z,11.96
2022-09-27T15:04:36.270Z,12.29
2022-09-27T15:10:07.855Z,12.3
2022-09-27T15:15:39.767Z,11.87
2022-09-27T15:21:11.292Z,11.6
2022-09-27T15:26:42.926Z,11.6
2022-09-27T15:32:14.755Z,11.68
2022-09-27T15:37:46.510Z,11.79
2022-09-27T15:43:24.622Z,11.66
2022-09-27T15:48:56.422Z,11.59
2022-09-27T15:54:28.155Z,11.56
2022-09-27T15:59:59.793Z,11.41
2022-09-27T16:05:31.561Z,11.55
2022-09-27T16:11:03.254Z,11.59
2022-09-27T16:16:34.962Z,11.39
2022-09-27T16:22:06.694Z,11.17
2022-09-27T16:27:38.525Z,11.13
2022-09-27T16:33:10.182Z,11.15
2022-09-27T16:38:41.883Z,11.23
2022-09-27T16:44:21.962Z,11.23
2022-09-27T16:49:53.696Z,11.15
2022-09-27T16:55:25.407Z,11.31
2022-09-27T17:00:57.198Z,11.27
2022-09-27T17:06:28.883Z,11.06
2022-09-27T17:12:00.723Z,11.0
2022-09-27T17:17:32.378Z,10.88
2022-09-27T17:23:04.053Z,10.81
2022-09-27T17:28:35.786Z,10.66
2022-09-27T17:34:07.590Z,10.73
2022-09-27T17:39:39.203Z,10.77
2022-09-27T17:45:15.332Z,10.99
2022-09-27T17:50:47.066Z,11.01
2022-09-27T17:56:18.946Z,11.13
2022-09-27T18:01:50.635Z,10.81
2022-09-27T18:07:22.217Z,10.78
2022-09-27T18:12:53.973Z,10.73
2022-09-27T18:18:25.666Z,10.67
2022-09-27T18:23:57.399Z,10.68
2022-09-27T18:29:29.169Z,10.68
2022-09-27T18:35:00.822Z,10.68
2022-09-27T18:40:44.768Z,10.57
2022-09-27T18:46:33.723Z,10.53
2022-09-27T18:51:40.415Z,10.52
2022-09-27T18:57:12.175Z,10.67
2022-09-27T19:02:43.874Z,10.55
2022-09-27T19:08:15.670Z,10.43
2022-09-27T19:13:51.346Z,10.39
2022-09-27T19:19:19.195Z,10.43
2022-09-27T19:24:50.808Z,10.26
2022-09-27T19:30:22.534Z,10.23
2022-09-27T19:35:54.262Z,10.22
2022-09-27T19:41:26.053Z,10.19
2022-09-27T19:47:02.299Z,10.17
2022-09-27T19:52:33.810Z,10.09
2022-09-27T19:58:05.573Z,10.37
2022-09-27T20:03:37.294Z,10.21
2022-09-27T20:09:09.015Z,10.56
2022-09-27T20:14:41.043Z,10.67
2022-09-27T20:20:12.455Z,10.56
2022-09-27T20:25:44.255Z,10.45
2022-09-27T20:31:15.936Z,10.11
2022-09-27T20:36:47.619Z,10.06
2022-09-27T20:42:19.390Z,10.12
2022-09-27T20:47:55.446Z,9.97
2022-09-27T20:53:27.313Z,9.95
2022-09-27T20:58:58.906Z,9.98
2022-09-27T21:04:30.662Z,9.97
2022-09-27T21:10:02.377Z,9.91
2022-09-27T21:15:34.109Z,10.03
2022-09-27T21:21:05.952Z,10.22
2022-09-27T21:26:37.524Z,10.32
2022-09-27T21:32:09.306Z,10.67
2022-09-27T21:37:40.971Z,10.71
2022-09-27T21:43:12.700Z,10.57
2022-09-27T21:48:48.785Z,10.63
2022-09-27T21:54:20.503Z,10.4
2022-09-27T21:59:52.429Z,10.61
2022-09-27T22:05:24.385Z,10.29
2022-09-27T22:10:55.698Z,10.31
2022-09-27T22:16:27.368Z,10.33
2022-09-27T22:21:59.139Z,10.39
2022-09-27T22:27:31.073Z,10.38
2022-09-27T22:33:02.566Z,10.3
2022-09-27T22:38:34.297Z,10.48
2022-09-27T22:44:06.110Z,10.58
2022-09-27T22:49:44.201Z,10.71
2022-09-27T22:55:15.910Z,10.94
2022-09-27T23:00:47.664Z,10.91
2022-09-27T23:06:19.347Z,10.77
2022-09-27T23:11:51.030Z,10.72
2022-09-27T23:17:22.789Z,10.56
2022-09-27T23:22:54.525Z,10.44
2022-09-27T23:28:26.172Z,10.68
2022-09-27T23:33:58.058Z,10.49
2022-09-27T23:39:29.807Z,10.42
2022-09-27T23:45:01.375Z,10.53
2022-09-27T23:50:37.486Z,10.39
2022-09-27T23:56:09.224Z,10.3
